sensor_id;sensor_type;location;lat;lon;timestamp;P1;durP1;ratioP1;P2;durP2;ratioP2
22660;SDS011;11497;52.222;21.246;2022-10-19T00:01:14;38.88;;;24.15;;
22660;SDS011;11497;52.222;21.246;2022-10-19T00:03:45;30.95;;;21.45;;
22660;SDS011;11497;52.222;21.246;2022-10-19T00:06:24;33.25;;;20.92;;
22660;SDS011;11497;52.222;21.246;2022-10-19T00:08:55;35.38;;;21.63;;
22660;SDS011;11497;52.222;21.246;2022-10-19T00:11:26;32.15;;;21.95;;
22660;SDS011;11497;52.222;21.246;2022-10-19T00:13:56;35.83;;;21.75;;
22660;SDS011;11497;52.222;21.246;2022-10-19T00:16:26;30.25;;;20.95;;
22660;SDS011;11497;52.222;21.246;2022-10-19T00:18:56;31.88;;;21.15;;
22660;SDS011;11497;52.222;21.246;2022-10-19T00:21:25;33.10;;;21.65;;
22660;SDS011;11497;52.222;21.246;2022-10-19T00:23:53;35.58;;;21.27;;
22660;SDS011;11497;52.222;21.246;2022-10-19T00:26:21;32.25;;;20.55;;
22660;SDS011;11497;52.222;21.246;2022-10-19T00:28:51;38.67;;;21.35;;
22660;SDS011;11497;52.222;21.246;2022-10-19T00:31:20;45.60;;;20.48;;
22660;SDS011;11497;52.222;21.246;2022-10-19T00:33:48;32.88;;;20.60;;
22660;SDS011;11497;52.222;21.246;2022-10-19T00:36:18;39.05;;;20.40;;
22660;SDS011;11497;52.222;21.246;2022-10-19T00:38:53;32.03;;;19.05;;
22660;SDS011;11497;52.222;21.246;2022-10-19T00:41:22;34.10;;;19.08;;
22660;SDS011;11497;52.222;21.246;2022-10-19T00:43:57;32.13;;;18.92;;
22660;SDS011;11497;52.222;21.246;2022-10-19T00:46:28;35.72;;;18.80;;
22660;SDS011;11497;52.222;21.246;2022-10-19T00:49:05;35.05;;;17.60;;
22660;SDS011;11497;52.222;21.246;2022-10-19T00:51:46;35.03;;;17.33;;
22660;SDS011;11497;52.222;21.246;2022-10-19T00:54:20;34.38;;;16.70;;
22660;SDS011;11497;52.222;21.246;2022-10-19T00:56:49;27.60;;;15.70;;
22660;SDS011;11497;52.222;21.246;2022-10-19T00:59:20;27.10;;;15.55;;
22660;SDS011;11497;52.222;21.246;2022-10-19T01:01:51;29.15;;;15.63;;
22660;SDS011;11497;52.222;21.246;2022-10-19T01:04:20;26.85;;;14.07;;
22660;SDS011;11497;52.222;21.246;2022-10-19T01:06:49;28.00;;;14.07;;
22660;SDS011;11497;52.222;21.246;2022-10-19T01:09:18;30.33;;;14.43;;
22660;SDS011;11497;52.222;21.246;2022-10-19T01:17:31;30.60;;;14.85;;
22660;SDS011;11497;52.222;21.246;2022-10-19T01:28:41;31.40;;;14.98;;
22660;SDS011;11497;52.222;21.246;2022-10-19T01:39:52;28.25;;;13.60;;
22660;SDS011;11497;52.222;21.246;2022-10-19T01:42:34;24.65;;;13.95;;
22660;SDS011;11497;52.222;21.246;2022-10-19T01:45:16;31.52;;;14.35;;
22660;SDS011;11497;52.222;21.246;2022-10-19T01:50:34;29.17;;;13.98;;
22660;SDS011;11497;52.222;21.246;2022-10-19T01:53:07;26.15;;;13.93;;
22660;SDS011;11497;52.222;21.246;2022-10-19T01:55:38;29.83;;;14.60;;
22660;SDS011;11497;52.222;21.246;2022-10-19T01:58:09;28.83;;;15.30;;
22660;SDS011;11497;52.222;21.246;2022-10-19T02:00:42;31.73;;;15.20;;
22660;SDS011;11497;52.222;21.246;2022-10-19T02:03:12;34.38;;;16.67;;
22660;SDS011;11497;52.222;21.246;2022-10-19T02:05:41;32.30;;;17.25;;
22660;SDS011;11497;52.222;21.246;2022-10-19T02:08:14;33.35;;;17.83;;
22660;SDS011;11497;52.222;21.246;2022-10-19T02:10:57;34.03;;;17.80;;
22660;SDS011;11497;52.222;21.246;2022-10-19T02:13:27;34.42;;;18.17;;
22660;SDS011;11497;52.222;21.246;2022-10-19T02:15:56;38.20;;;19.48;;
22660;SDS011;11497;52.222;21.246;2022-10-19T02:18:30;34.38;;;20.10;;
22660;SDS011;11497;52.222;21.246;2022-10-19T02:21:01;39.15;;;20.73;;
22660;SDS011;11497;52.222;21.246;2022-10-19T02:23:30;29.38;;;20.38;;
22660;SDS011;11497;52.222;21.246;2022-10-19T02:25:58;43.47;;;19.75;;
22660;SDS011;11497;52.222;21.246;2022-10-19T02:28:27;32.92;;;18.42;;
22660;SDS011;11497;52.222;21.246;2022-10-19T02:30:56;37.17;;;18.10;;
22660;SDS011;11497;52.222;21.246;2022-10-19T02:33:25;29.75;;;18.15;;
22660;SDS011;11497;52.222;21.246;2022-10-19T02:35:54;31.73;;;17.15;;
22660;SDS011;11497;52.222;21.246;2022-10-19T02:38:23;32.08;;;15.43;;
22660;SDS011;11497;52.222;21.246;2022-10-19T02:40:53;32.13;;;15.95;;
22660;SDS011;11497;52.222;21.246;2022-10-19T02:43:28;27.70;;;14.07;;
22660;SDS011;11497;52.222;21.246;2022-10-19T02:46:01;31.50;;;15.02;;
22660;SDS011;11497;52.222;21.246;2022-10-19T02:48:36;29.80;;;14.18;;
22660;SDS011;11497;52.222;21.246;2022-10-19T02:51:25;30.92;;;14.95;;
22660;SDS011;11497;52.222;21.246;2022-10-19T02:53:58;31.13;;;14.18;;
22660;SDS011;11497;52.222;21.246;2022-10-19T02:56:31;25.80;;;13.52;;
22660;SDS011;11497;52.222;21.246;2022-10-19T02:59:00;28.58;;;13.85;;
22660;SDS011;11497;52.222;21.246;2022-10-19T03:01:29;21.77;;;13.82;;
22660;SDS011;11497;52.222;21.246;2022-10-19T03:03:57;27.60;;;13.50;;
22660;SDS011;11497;52.222;21.246;2022-10-19T03:06:24;25.08;;;13.52;;
22660;SDS011;11497;52.222;21.246;2022-10-19T03:08:52;24.02;;;14.05;;
22660;SDS011;11497;52.222;21.246;2022-10-19T03:11:20;28.83;;;14.50;;
22660;SDS011;11497;52.222;21.246;2022-10-19T03:13:47;29.25;;;14.77;;
22660;SDS011;11497;52.222;21.246;2022-10-19T03:16:15;27.38;;;15.63;;
22660;SDS011;11497;52.222;21.246;2022-10-19T03:18:43;34.40;;;14.70;;
22660;SDS011;11497;52.222;21.246;2022-10-19T03:21:13;26.40;;;14.75;;
22660;SDS011;11497;52.222;21.246;2022-10-19T03:23:41;29.15;;;14.82;;
22660;SDS011;11497;52.222;21.246;2022-10-19T03:26:09;29.98;;;16.08;;
22660;SDS011;11497;52.222;21.246;2022-10-19T03:28:39;28.10;;;16.38;;
22660;SDS011;11497;52.222;21.246;2022-10-19T03:31:08;26.60;;;15.90;;
22660;SDS011;11497;52.222;21.246;2022-10-19T03:33:36;31.80;;;16.73;;
22660;SDS011;11497;52.222;21.246;2022-10-19T03:36:18;26.02;;;16.15;;
22660;SDS011;11497;52.222;21.246;2022-10-19T03:38:49;33.63;;;16.52;;
22660;SDS011;11497;52.222;21.246;2022-10-19T03:41:21;32.65;;;15.52;;
22660;SDS011;11497;52.222;21.246;2022-10-19T03:43:51;31.65;;;15.73;;
22660;SDS011;11497;52.222;21.246;2022-10-19T03:46:19;28.17;;;13.77;;
22660;SDS011;11497;52.222;21.246;2022-10-19T03:48:47;26.48;;;14.00;;
22660;SDS011;11497;52.222;21.246;2022-10-19T03:51:19;27.85;;;14.43;;
22660;SDS011;11497;52.222;21.246;2022-10-19T03:53:50;24.85;;;14.10;;
22660;SDS011;11497;52.222;21.246;2022-10-19T03:56:20;26.35;;;13.68;;
22660;SDS011;11497;52.222;21.246;2022-10-19T03:58:50;29.50;;;14.75;;
22660;SDS011;11497;52.222;21.246;2022-10-19T04:01:22;31.73;;;15.95;;
22660;SDS011;11497;52.222;21.246;2022-10-19T04:03:53;24.95;;;14.45;;
22660;SDS011;11497;52.222;21.246;2022-10-19T04:06:26;40.05;;;16.13;;
22660;SDS011;11497;52.222;21.246;2022-10-19T04:08:57;29.58;;;16.17;;
22660;SDS011;11497;52.222;21.246;2022-10-19T04:11:26;32.38;;;15.98;;
22660;SDS011;11497;52.222;21.246;2022-10-19T04:13:56;29.55;;;15.95;;
22660;SDS011;11497;52.222;21.246;2022-10-19T04:16:26;29.67;;;15.50;;
22660;SDS011;11497;52.222;21.246;2022-10-19T04:18:55;26.42;;;14.82;;
22660;SDS011;11497;52.222;21.246;2022-10-19T04:23:56;27.40;;;13.85;;
22660;SDS011;11497;52.222;21.246;2022-10-19T04:26:26;26.30;;;14.60;;
22660;SDS011;11497;52.222;21.246;2022-10-19T04:28:55;33.65;;;14.55;;
22660;SDS011;11497;52.222;21.246;2022-10-19T04:31:24;25.13;;;14.23;;
22660;SDS011;11497;52.222;21.246;2022-10-19T04:33:53;25.38;;;14.15;;
22660;SDS011;11497;52.222;21.246;2022-10-19T04:36:22;22.70;;;13.98;;
22660;SDS011;11497;52.222;21.246;2022-10-19T04:38:50;25.10;;;14.82;;
22660;SDS011;11497;52.222;21.246;2022-10-19T04:41:19;24.25;;;14.20;;
22660;SDS011;11497;52.222;21.246;2022-10-19T04:43:48;22.58;;;13.20;;
22660;SDS011;11497;52.222;21.246;2022-10-19T04:46:23;32.22;;;13.73;;
22660;SDS011;11497;52.222;21.246;2022-10-19T04:48:52;23.63;;;13.25;;
22660;SDS011;11497;52.222;21.246;2022-10-19T04:51:21;21.83;;;12.85;;
22660;SDS011;11497;52.222;21.246;2022-10-19T04:53:50;22.05;;;12.95;;
22660;SDS011;11497;52.222;21.246;2022-10-19T04:56:24;26.05;;;12.43;;
22660;SDS011;11497;52.222;21.246;2022-10-19T04:58:54;25.60;;;13.05;;
22660;SDS011;11497;52.222;21.246;2022-10-19T05:01:23;23.92;;;11.55;;
22660;SDS011;11497;52.222;21.246;2022-10-19T05:03:56;25.98;;;12.40;;
22660;SDS011;11497;52.222;21.246;2022-10-19T05:06:26;20.65;;;11.55;;
22660;SDS011;11497;52.222;21.246;2022-10-19T05:08:55;21.33;;;10.82;;
22660;SDS011;11497;52.222;21.246;2022-10-19T05:11:23;23.98;;;11.77;;
22660;SDS011;11497;52.222;21.246;2022-10-19T05:13:51;23.02;;;10.73;;
22660;SDS011;11497;52.222;21.246;2022-10-19T05:16:21;20.35;;;10.05;;
22660;SDS011;11497;52.222;21.246;2022-10-19T05:18:51;18.42;;;10.32;;
22660;SDS011;11497;52.222;21.246;2022-10-19T05:21:25;17.58;;;10.30;;
22660;SDS011;11497;52.222;21.246;2022-10-19T05:23:54;16.80;;;9.55;;
22660;SDS011;11497;52.222;21.246;2022-10-19T05:26:26;18.50;;;9.48;;
22660;SDS011;11497;52.222;21.246;2022-10-19T05:28:56;17.48;;;9.68;;
22660;SDS011;11497;52.222;21.246;2022-10-19T05:31:31;25.48;;;9.65;;
22660;SDS011;11497;52.222;21.246;2022-10-19T05:33:59;17.65;;;9.63;;
22660;SDS011;11497;52.222;21.246;2022-10-19T05:39:18;21.90;;;9.40;;
22660;SDS011;11497;52.222;21.246;2022-10-19T05:41:46;22.77;;;9.13;;
22660;SDS011;11497;52.222;21.246;2022-10-19T05:44:15;16.67;;;8.98;;
22660;SDS011;11497;52.222;21.246;2022-10-19T05:46:48;13.15;;;8.80;;
22660;SDS011;11497;52.222;21.246;2022-10-19T05:49:18;17.05;;;9.77;;
22660;SDS011;11497;52.222;21.246;2022-10-19T05:51:47;20.85;;;9.43;;
22660;SDS011;11497;52.222;21.246;2022-10-19T05:54:15;15.98;;;9.15;;
22660;SDS011;11497;52.222;21.246;2022-10-19T05:56:44;18.10;;;9.20;;
22660;SDS011;11497;52.222;21.246;2022-10-19T05:59:13;15.63;;;8.63;;
22660;SDS011;11497;52.222;21.246;2022-10-19T06:01:43;18.98;;;8.75;;
22660;SDS011;11497;52.222;21.246;2022-10-19T06:04:12;18.30;;;8.48;;
22660;SDS011;11497;52.222;21.246;2022-10-19T06:06:41;17.98;;;8.75;;
22660;SDS011;11497;52.222;21.246;2022-10-19T06:09:09;22.63;;;8.98;;
22660;SDS011;11497;52.222;21.246;2022-10-19T06:11:38;18.13;;;8.55;;
22660;SDS011;11497;52.222;21.246;2022-10-19T06:14:09;17.88;;;8.27;;
22660;SDS011;11497;52.222;21.246;2022-10-19T06:16:39;15.75;;;8.48;;
22660;SDS011;11497;52.222;21.246;2022-10-19T06:19:07;16.25;;;8.18;;
22660;SDS011;11497;52.222;21.246;2022-10-19T06:21:34;19.90;;;7.85;;
22660;SDS011;11497;52.222;21.246;2022-10-19T06:24:09;14.90;;;7.95;;
22660;SDS011;11497;52.222;21.246;2022-10-19T06:26:37;17.08;;;8.25;;
22660;SDS011;11497;52.222;21.246;2022-10-19T06:29:06;12.13;;;7.07;;
22660;SDS011;11497;52.222;21.246;2022-10-19T06:31:34;13.88;;;7.30;;
22660;SDS011;11497;52.222;21.246;2022-10-19T06:34:03;12.80;;;6.90;;
22660;SDS011;11497;52.222;21.246;2022-10-19T06:36:31;19.45;;;7.35;;
22660;SDS011;11497;52.222;21.246;2022-10-19T06:38:59;13.93;;;6.70;;
22660;SDS011;11497;52.222;21.246;2022-10-19T06:41:28;12.82;;;6.85;;
22660;SDS011;11497;52.222;21.246;2022-10-19T06:46:39;12.18;;;6.38;;
22660;SDS011;11497;52.222;21.246;2022-10-19T06:49:10;10.68;;;6.22;;
22660;SDS011;11497;52.222;21.246;2022-10-19T06:51:40;11.77;;;6.05;;
22660;SDS011;11497;52.222;21.246;2022-10-19T06:54:07;9.52;;;5.70;;
22660;SDS011;11497;52.222;21.246;2022-10-19T06:56:35;13.70;;;6.15;;
22660;SDS011;11497;52.222;21.246;2022-10-19T06:59:03;11.10;;;6.53;;
22660;SDS011;11497;52.222;21.246;2022-10-19T07:01:31;11.98;;;6.13;;
22660;SDS011;11497;52.222;21.246;2022-10-19T07:03:59;17.60;;;6.45;;
22660;SDS011;11497;52.222;21.246;2022-10-19T07:06:28;10.77;;;6.03;;
22660;SDS011;11497;52.222;21.246;2022-10-19T07:08:55;16.08;;;7.25;;
22660;SDS011;11497;52.222;21.246;2022-10-19T07:11:23;18.10;;;9.27;;
22660;SDS011;11497;52.222;21.246;2022-10-19T07:13:51;18.58;;;8.50;;
22660;SDS011;11497;52.222;21.246;2022-10-19T07:16:19;13.25;;;8.00;;
22660;SDS011;11497;52.222;21.246;2022-10-19T07:18:51;14.88;;;8.32;;
22660;SDS011;11497;52.222;21.246;2022-10-19T07:21:20;18.40;;;8.82;;
22660;SDS011;11497;52.222;21.246;2022-10-19T07:23:48;21.00;;;9.10;;
22660;SDS011;11497;52.222;21.246;2022-10-19T07:26:22;16.55;;;7.22;;
22660;SDS011;11497;52.222;21.246;2022-10-19T07:28:56;15.00;;;7.60;;
22660;SDS011;11497;52.222;21.246;2022-10-19T07:31:25;13.18;;;7.30;;
22660;SDS011;11497;52.222;21.246;2022-10-19T07:33:55;13.75;;;7.07;;
22660;SDS011;11497;52.222;21.246;2022-10-19T07:36:24;14.00;;;8.02;;
22660;SDS011;11497;52.222;21.246;2022-10-19T07:38:53;13.93;;;7.28;;
22660;SDS011;11497;52.222;21.246;2022-10-19T07:41:22;12.00;;;6.20;;
22660;SDS011;11497;52.222;21.246;2022-10-19T07:43:51;10.73;;;6.40;;
22660;SDS011;11497;52.222;21.246;2022-10-19T07:46:20;11.98;;;6.50;;
22660;SDS011;11497;52.222;21.246;2022-10-19T07:48:51;9.85;;;5.90;;
22660;SDS011;11497;52.222;21.246;2022-10-19T07:51:20;11.05;;;5.25;;
22660;SDS011;11497;52.222;21.246;2022-10-19T07:53:48;10.82;;;4.88;;
22660;SDS011;11497;52.222;21.246;2022-10-19T07:56:17;10.50;;;5.38;;
22660;SDS011;11497;52.222;21.246;2022-10-19T07:58:46;9.65;;;5.60;;
22660;SDS011;11497;52.222;21.246;2022-10-19T08:01:17;11.30;;;5.88;;
22660;SDS011;11497;52.222;21.246;2022-10-19T08:03:46;9.75;;;4.80;;
22660;SDS011;11497;52.222;21.246;2022-10-19T08:06:34;10.50;;;4.68;;
22660;SDS011;11497;52.222;21.246;2022-10-19T08:09:04;7.40;;;4.30;;
22660;SDS011;11497;52.222;21.246;2022-10-19T08:11:33;9.20;;;4.80;;
22660;SDS011;11497;52.222;21.246;2022-10-19T08:14:02;8.95;;;4.78;;
22660;SDS011;11497;52.222;21.246;2022-10-19T08:16:31;10.38;;;4.57;;
22660;SDS011;11497;52.222;21.246;2022-10-19T08:19:01;8.95;;;4.20;;
22660;SDS011;11497;52.222;21.246;2022-10-19T08:21:33;13.68;;;4.30;;
22660;SDS011;11497;52.222;21.246;2022-10-19T08:24:02;9.35;;;5.00;;
22660;SDS011;11497;52.222;21.246;2022-10-19T08:26:30;8.75;;;5.55;;
22660;SDS011;11497;52.222;21.246;2022-10-19T08:29:00;10.65;;;5.70;;
22660;SDS011;11497;52.222;21.246;2022-10-19T08:31:29;9.80;;;6.10;;
22660;SDS011;11497;52.222;21.246;2022-10-19T08:33:57;9.65;;;5.90;;
22660;SDS011;11497;52.222;21.246;2022-10-19T08:36:25;10.07;;;5.70;;
22660;SDS011;11497;52.222;21.246;2022-10-19T08:38:57;7.93;;;4.97;;
22660;SDS011;11497;52.222;21.246;2022-10-19T08:49:35;12.70;;;6.57;;
22660;SDS011;11497;52.222;21.246;2022-10-19T08:52:04;10.23;;;6.78;;
22660;SDS011;11497;52.222;21.246;2022-10-19T08:54:45;8.02;;;5.53;;
22660;SDS011;11497;52.222;21.246;2022-10-19T08:57:21;9.35;;;5.50;;
22660;SDS011;11497;52.222;21.246;2022-10-19T09:03:00;8.32;;;6.75;;
22660;SDS011;11497;52.222;21.246;2022-10-19T09:05:39;10.95;;;5.57;;
22660;SDS011;11497;52.222;21.246;2022-10-19T09:08:27;9.10;;;6.65;;
22660;SDS011;11497;52.222;21.246;2022-10-19T09:10:56;6.03;;;4.55;;
22660;SDS011;11497;52.222;21.246;2022-10-19T09:13:35;8.13;;;4.50;;
22660;SDS011;11497;52.222;21.246;2022-10-19T09:16:31;8.13;;;5.95;;
22660;SDS011;11497;52.222;21.246;2022-10-19T09:19:01;11.82;;;5.13;;
22660;SDS011;11497;52.222;21.246;2022-10-19T09:21:45;7.00;;;5.40;;
22660;SDS011;11497;52.222;21.246;2022-10-19T09:27:21;6.07;;;5.10;;
22660;SDS011;11497;52.222;21.246;2022-10-19T09:29:58;7.65;;;4.85;;
22660;SDS011;11497;52.222;21.246;2022-10-19T09:37:44;6.47;;;4.80;;
22660;SDS011;11497;52.222;21.246;2022-10-19T09:40:18;6.20;;;4.85;;
22660;SDS011;11497;52.222;21.246;2022-10-19T09:42:48;10.23;;;5.07;;
22660;SDS011;11497;52.222;21.246;2022-10-19T09:47:50;8.65;;;4.40;;
22660;SDS011;11497;52.222;21.246;2022-10-19T09:50:19;11.35;;;4.03;;
22660;SDS011;11497;52.222;21.246;2022-10-19T09:53:01;7.05;;;3.30;;
22660;SDS011;11497;52.222;21.246;2022-10-19T09:55:35;1.92;;;1.83;;
22660;SDS011;11497;52.222;21.246;2022-10-19T10:00:47;3.85;;;1.58;;
22660;SDS011;11497;52.222;21.246;2022-10-19T10:03:28;2.70;;;1.90;;
22660;SDS011;11497;52.222;21.246;2022-10-19T10:06:15;2.92;;;1.60;;
22660;SDS011;11497;52.222;21.246;2022-10-19T10:08:45;1.88;;;1.50;;
22660;SDS011;11497;52.222;21.246;2022-10-19T10:11:22;1.60;;;1.50;;
22660;SDS011;11497;52.222;21.246;2022-10-19T10:13:53;2.42;;;1.70;;
22660;SDS011;11497;52.222;21.246;2022-10-19T10:16:22;3.55;;;1.83;;
22660;SDS011;11497;52.222;21.246;2022-10-19T10:18:59;4.05;;;1.92;;
22660;SDS011;11497;52.222;21.246;2022-10-19T10:21:32;2.20;;;1.80;;
22660;SDS011;11497;52.222;21.246;2022-10-19T10:26:42;4.30;;;1.85;;
22660;SDS011;11497;52.222;21.246;2022-10-19T10:29:19;2.95;;;1.95;;
22660;SDS011;11497;52.222;21.246;2022-10-19T10:31:53;5.55;;;2.65;;
22660;SDS011;11497;52.222;21.246;2022-10-19T10:34:38;4.32;;;2.38;;
22660;SDS011;11497;52.222;21.246;2022-10-19T10:37:21;3.95;;;2.30;;
22660;SDS011;11497;52.222;21.246;2022-10-19T10:40:27;3.55;;;1.40;;
22660;SDS011;11497;52.222;21.246;2022-10-19T10:43:00;4.50;;;1.83;;
22660;SDS011;11497;52.222;21.246;2022-10-19T10:45:49;3.88;;;1.50;;
22660;SDS011;11497;52.222;21.246;2022-10-19T10:48:23;4.82;;;1.50;;
22660;SDS011;11497;52.222;21.246;2022-10-19T10:51:01;2.53;;;1.73;;
22660;SDS011;11497;52.222;21.246;2022-10-19T10:56:18;2.72;;;1.50;;
22660;SDS011;11497;52.222;21.246;2022-10-19T11:01:39;2.67;;;1.30;;
22660;SDS011;11497;52.222;21.246;2022-10-19T11:04:13;2.40;;;2.00;;
22660;SDS011;11497;52.222;21.246;2022-10-19T11:06:52;2.65;;;1.40;;
22660;SDS011;11497;52.222;21.246;2022-10-19T11:09:34;2.55;;;1.48;;
22660;SDS011;11497;52.222;21.246;2022-10-19T11:12:11;3.75;;;1.60;;
22660;SDS011;11497;52.222;21.246;2022-10-19T11:14:45;2.40;;;1.90;;
22660;SDS011;11497;52.222;21.246;2022-10-19T11:17:26;2.33;;;1.40;;
22660;SDS011;11497;52.222;21.246;2022-10-19T11:19:56;3.20;;;1.30;;
22660;SDS011;11497;52.222;21.246;2022-10-19T11:22:28;3.28;;;1.30;;
22660;SDS011;11497;52.222;21.246;2022-10-19T11:31:18;2.40;;;1.58;;
22660;SDS011;11497;52.222;21.246;2022-10-19T11:48:13;4.57;;;1.95;;
22660;SDS011;11497;52.222;21.246;2022-10-19T11:50:55;3.63;;;1.83;;
22660;SDS011;11497;52.222;21.246;2022-10-19T11:56:44;2.80;;;1.30;;
22660;SDS011;11497;52.222;21.246;2022-10-19T12:11:02;2.03;;;1.40;;
22660;SDS011;11497;52.222;21.246;2022-10-19T12:13:51;3.72;;;1.42;;
22660;SDS011;11497;52.222;21.246;2022-10-19T12:16:23;3.60;;;1.40;;
22660;SDS011;11497;52.222;21.246;2022-10-19T12:19:00;2.47;;;1.20;;
22660;SDS011;11497;52.222;21.246;2022-10-19T12:21:32;6.22;;;1.55;;
22660;SDS011;11497;52.222;21.246;2022-10-19T12:24:05;3.40;;;1.25;;
22660;SDS011;11497;52.222;21.246;2022-10-19T12:26:44;1.67;;;1.10;;
22660;SDS011;11497;52.222;21.246;2022-10-19T12:29:16;1.88;;;1.02;;
22660;SDS011;11497;52.222;21.246;2022-10-19T12:34:24;3.92;;;1.38;;
22660;SDS011;11497;52.222;21.246;2022-10-19T12:39:59;3.05;;;1.00;;
22660;SDS011;11497;52.222;21.246;2022-10-19T12:45:32;2.25;;;1.00;;
22660;SDS011;11497;52.222;21.246;2022-10-19T12:53:24;5.63;;;1.70;;
22660;SDS011;11497;52.222;21.246;2022-10-19T13:04:17;1.95;;;0.82;;
22660;SDS011;11497;52.222;21.246;2022-10-19T13:07:00;1.60;;;1.00;;
22660;SDS011;11497;52.222;21.246;2022-10-19T13:09:42;3.58;;;1.00;;
22660;SDS011;11497;52.222;21.246;2022-10-19T13:14:51;3.25;;;1.10;;
22660;SDS011;11497;52.222;21.246;2022-10-19T13:22:41;2.08;;;1.08;;
22660;SDS011;11497;52.222;21.246;2022-10-19T13:38:35;1.35;;;0.93;;
22660;SDS011;11497;52.222;21.246;2022-10-19T13:41:22;1.08;;;0.90;;
22660;SDS011;11497;52.222;21.246;2022-10-19T14:03:33;3.40;;;0.90;;
22660;SDS011;11497;52.222;21.246;2022-10-19T14:06:20;4.00;;;1.30;;
22660;SDS011;11497;52.222;21.246;2022-10-19T14:11:46;1.73;;;0.70;;
22660;SDS011;11497;52.222;21.246;2022-10-19T14:14:18;1.48;;;0.85;;
22660;SDS011;11497;52.222;21.246;2022-10-19T14:19:26;0.77;;;0.67;;
22660;SDS011;11497;52.222;21.246;2022-10-19T14:21:55;1.38;;;0.90;;
22660;SDS011;11497;52.222;21.246;2022-10-19T14:27:01;2.22;;;1.00;;
22660;SDS011;11497;52.222;21.246;2022-10-19T14:29:50;1.67;;;0.80;;
22660;SDS011;11497;52.222;21.246;2022-10-19T14:32:21;1.00;;;0.90;;
22660;SDS011;11497;52.222;21.246;2022-10-19T14:34:52;1.35;;;0.88;;
22660;SDS011;11497;52.222;21.246;2022-10-19T14:37:24;1.92;;;1.00;;
22660;SDS011;11497;52.222;21.246;2022-10-19T14:40:06;0.98;;;0.90;;
22660;SDS011;11497;52.222;21.246;2022-10-19T14:42:53;2.78;;;0.90;;
22660;SDS011;11497;52.222;21.246;2022-10-19T14:45:29;6.10;;;1.50;;
22660;SDS011;11497;52.222;21.246;2022-10-19T14:50:46;3.72;;;2.35;;
22660;SDS011;11497;52.222;21.246;2022-10-19T14:56:03;2.05;;;1.10;;
22660;SDS011;11497;52.222;21.246;2022-10-19T14:58:43;2.15;;;1.10;;
22660;SDS011;11497;52.222;21.246;2022-10-19T15:01:18;2.45;;;0.90;;
22660;SDS011;11497;52.222;21.246;2022-10-19T15:03:47;2.70;;;0.80;;
22660;SDS011;11497;52.222;21.246;2022-10-19T15:06:23;1.98;;;1.13;;
22660;SDS011;11497;52.222;21.246;2022-10-19T15:08:58;1.17;;;1.02;;
22660;SDS011;11497;52.222;21.246;2022-10-19T15:11:37;1.52;;;0.95;;
22660;SDS011;11497;52.222;21.246;2022-10-19T15:14:07;3.50;;;1.05;;
22660;SDS011;11497;52.222;21.246;2022-10-19T15:19:27;1.20;;;1.10;;
22660;SDS011;11497;52.222;21.246;2022-10-19T15:22:10;2.38;;;1.50;;
22660;SDS011;11497;52.222;21.246;2022-10-19T15:27:26;1.63;;;1.40;;
22660;SDS011;11497;52.222;21.246;2022-10-19T15:30:04;3.38;;;1.90;;
22660;SDS011;11497;52.222;21.246;2022-10-19T15:32:45;4.00;;;1.98;;
22660;SDS011;11497;52.222;21.246;2022-10-19T15:35:20;5.38;;;1.88;;
22660;SDS011;11497;52.222;21.246;2022-10-19T15:38:02;4.35;;;1.98;;
22660;SDS011;11497;52.222;21.246;2022-10-19T15:40:34;5.82;;;1.90;;
22660;SDS011;11497;52.222;21.246;2022-10-19T15:43:23;3.70;;;1.67;;
22660;SDS011;11497;52.222;21.246;2022-10-19T15:48:51;2.97;;;1.63;;
22660;SDS011;11497;52.222;21.246;2022-10-19T15:56:20;3.60;;;1.65;;
22660;SDS011;11497;52.222;21.246;2022-10-19T15:58:50;5.75;;;1.52;;
22660;SDS011;11497;52.222;21.246;2022-10-19T16:01:21;6.22;;;2.35;;
22660;SDS011;11497;52.222;21.246;2022-10-19T16:03:51;3.60;;;1.58;;
22660;SDS011;11497;52.222;21.246;2022-10-19T16:06:21;3.25;;;1.75;;
22660;SDS011;11497;52.222;21.246;2022-10-19T16:08:51;4.95;;;1.90;;
22660;SDS011;11497;52.222;21.246;2022-10-19T16:11:20;3.40;;;2.10;;
22660;SDS011;11497;52.222;21.246;2022-10-19T16:13:48;3.83;;;1.80;;
22660;SDS011;11497;52.222;21.246;2022-10-19T16:18:49;3.22;;;1.65;;
22660;SDS011;11497;52.222;21.246;2022-10-19T16:21:19;4.97;;;1.48;;
22660;SDS011;11497;52.222;21.246;2022-10-19T16:23:49;3.15;;;1.88;;
22660;SDS011;11497;52.222;21.246;2022-10-19T16:26:17;3.80;;;2.35;;
22660;SDS011;11497;52.222;21.246;2022-10-19T16:28:45;5.25;;;1.95;;
22660;SDS011;11497;52.222;21.246;2022-10-19T16:31:14;5.72;;;2.00;;
22660;SDS011;11497;52.222;21.246;2022-10-19T16:33:43;4.43;;;2.10;;
22660;SDS011;11497;52.222;21.246;2022-10-19T16:36:11;5.50;;;2.00;;
22660;SDS011;11497;52.222;21.246;2022-10-19T16:38:39;4.90;;;2.10;;
22660;SDS011;11497;52.222;21.246;2022-10-19T16:41:07;3.28;;;1.73;;
22660;SDS011;11497;52.222;21.246;2022-10-19T16:43:36;3.13;;;2.10;;
22660;SDS011;11497;52.222;21.246;2022-10-19T16:46:04;4.07;;;1.98;;
22660;SDS011;11497;52.222;21.246;2022-10-19T16:48:32;4.53;;;2.42;;
22660;SDS011;11497;52.222;21.246;2022-10-19T16:53:36;7.05;;;2.35;;
22660;SDS011;11497;52.222;21.246;2022-10-19T16:56:05;5.05;;;2.28;;
22660;SDS011;11497;52.222;21.246;2022-10-19T16:58:37;4.97;;;2.40;;
22660;SDS011;11497;52.222;21.246;2022-10-19T17:01:09;5.28;;;2.67;;
22660;SDS011;11497;52.222;21.246;2022-10-19T17:03:44;4.63;;;2.70;;
22660;SDS011;11497;52.222;21.246;2022-10-19T17:06:13;7.05;;;3.72;;
22660;SDS011;11497;52.222;21.246;2022-10-19T17:08:42;11.02;;;2.97;;
22660;SDS011;11497;52.222;21.246;2022-10-19T17:11:30;4.35;;;2.65;;
22660;SDS011;11497;52.222;21.246;2022-10-19T17:14:01;5.75;;;2.80;;
22660;SDS011;11497;52.222;21.246;2022-10-19T17:16:31;5.00;;;2.83;;
22660;SDS011;11497;52.222;21.246;2022-10-19T17:19:00;5.40;;;3.13;;
22660;SDS011;11497;52.222;21.246;2022-10-19T17:21:31;6.70;;;2.92;;
22660;SDS011;11497;52.222;21.246;2022-10-19T17:24:01;6.97;;;3.20;;
22660;SDS011;11497;52.222;21.246;2022-10-19T17:26:35;8.85;;;3.35;;
22660;SDS011;11497;52.222;21.246;2022-10-19T17:29:05;8.45;;;3.25;;
22660;SDS011;11497;52.222;21.246;2022-10-19T17:31:34;7.95;;;2.78;;
22660;SDS011;11497;52.222;21.246;2022-10-19T17:34:03;6.63;;;3.13;;
22660;SDS011;11497;52.222;21.246;2022-10-19T17:36:33;10.65;;;3.50;;
22660;SDS011;11497;52.222;21.246;2022-10-19T17:39:10;11.02;;;4.20;;
22660;SDS011;11497;52.222;21.246;2022-10-19T17:41:43;8.40;;;3.97;;
22660;SDS011;11497;52.222;21.246;2022-10-19T17:44:12;10.07;;;5.00;;
22660;SDS011;11497;52.222;21.246;2022-10-19T17:46:41;15.43;;;6.53;;
22660;SDS011;11497;52.222;21.246;2022-10-19T17:49:09;11.98;;;7.45;;
22660;SDS011;11497;52.222;21.246;2022-10-19T17:51:38;10.70;;;6.18;;
22660;SDS011;11497;52.222;21.246;2022-10-19T17:54:07;14.70;;;8.25;;
22660;SDS011;11497;52.222;21.246;2022-10-19T17:56:40;14.07;;;7.55;;
22660;SDS011;11497;52.222;21.246;2022-10-19T17:59:11;15.20;;;7.55;;
22660;SDS011;11497;52.222;21.246;2022-10-19T18:01:39;20.00;;;8.90;;
22660;SDS011;11497;52.222;21.246;2022-10-19T18:04:07;29.48;;;13.48;;
22660;SDS011;11497;52.222;21.246;2022-10-19T18:06:35;33.80;;;16.30;;
22660;SDS011;11497;52.222;21.246;2022-10-19T18:09:04;35.72;;;17.25;;